Time;durP1;ratioP1;P1;durP2;ratioP2;P2;SDS_P1;SDS_P2;PMS_P1;PMS_P2;Temp;Humidity;BMP_temperature;BMP_pressure;BME280_temperature;BME280_humidity;BME280_pressure;Samples;Min_cycle;Max_cycle;Signal;HPM_P1;HPM_P2
2023/06/27 00:01:26;;;;;;;6.88;1.55;;;18.00;90.80;;;;;;5068522;28;20048;-56
2023/06/27 00:03:53;;;;;;;6.18;1.63;;;17.90;90.90;;;;;;5067454;28;20080;-52
2023/06/27 00:06:20;;;;;;;5.43;1.65;;;17.90;91.30;;;;;;5050251;28;20041;-54
2023/06/27 00:08:48;;;;;;;5.57;1.58;;;17.90;91.20;;;;;;5065784;28;20072;-55
2023/06/27 00:11:15;;;;;;;7.22;1.77;;;17.80;91.40;;;;;;5067883;28;20102;-54
2023/06/27 00:13:42;;;;;;;7.22;1.73;;;17.80;91.80;;;;;;5068310;28;20097;-53
2023/06/27 00:16:15;;;;;;;5.75;1.80;;;17.80;91.60;;;;;;5067859;28;20048;-53
2023/06/27 00:18:47;;;;;;;7.75;1.85;;;17.80;91.90;;;;;;5068121;28;20135;-56
2023/06/27 00:21:15;;;;;;;3.55;1.48;;;17.80;91.80;;;;;;5067901;28;20040;-55
2023/06/27 00:23:43;;;;;;;6.53;2.17;;;17.70;92.10;;;;;;5067780;28;20052;-51
2023/06/27 00:26:11;;;;;;;4.57;1.65;;;17.70;92.30;;;;;;5067838;28;20090;-54
2023/06/27 00:28:38;;;;;;;7.75;1.63;;;17.70;92.40;;;;;;5066538;28;20138;-55
2023/06/27 00:31:05;;;;;;;8.05;1.85;;;17.50;92.60;;;;;;5067144;28;20042;-54
2023/06/27 00:33:32;;;;;;;11.27;1.90;;;17.50;93.40;;;;;;5068041;28;20105;-55
2023/06/27 00:35:59;;;;;;;5.63;1.70;;;17.40;93.10;;;;;;5068045;28;20044;-56
2023/06/27 00:38:26;;;;;;;4.90;1.95;;;17.40;93.20;;;;;;5067945;28;20044;-53
2023/06/27 00:40:52;;;;;;;7.75;1.65;;;17.40;93.60;;;;;;5068228;28;20168;-55
2023/06/27 00:43:19;;;;;;;10.82;2.22;;;17.40;93.70;;;;;;5067929;28;20044;-54
2023/06/27 00:45:46;;;;;;;8.65;1.80;;;17.40;93.80;;;;;;5068034;28;20055;-53
2023/06/27 00:48:14;;;;;;;6.88;2.00;;;17.30;93.70;;;;;;5049976;28;20040;-53
2023/06/27 00:50:41;;;;;;;6.57;1.88;;;17.40;94.00;;;;;;5033936;28;20128;-54
2023/06/27 00:53:08;;;;;;;6.90;2.17;;;17.30;94.10;;;;;;5047565;28;20056;-53
2023/06/27 00:55:37;;;;;;;11.95;1.80;;;17.30;94.40;;;;;;5050528;28;20041;-52
2023/06/27 00:58:06;;;;;;;7.60;2.05;;;17.30;94.30;;;;;;5050579;28;20053;-54
2023/06/27 01:00:33;;;;;;;6.88;1.70;;;17.40;94.50;;;;;;5033863;28;20441;-54
2023/06/27 01:02:59;;;;;;;9.20;1.65;;;17.40;94.50;;;;;;5066289;28;20528;-55
2023/06/27 01:05:27;;;;;;;8.82;1.70;;;17.40;94.50;;;;;;5067206;28;20493;-54
2023/06/27 01:08:07;;;;;;;9.95;3.03;;;17.30;94.60;;;;;;5066810;28;20056;-55
2023/06/27 01:11:08;;;;;;;6.10;1.50;;;17.40;95.10;;;;;;5031415;28;20049;-52
2023/06/27 01:13:41;;;;;;;7.93;1.88;;;17.30;96.10;;;;;;5048484;28;20048;-54
2023/06/27 01:16:08;;;;;;;10.00;1.65;;;17.30;95.70;;;;;;5049806;28;20056;-53
2023/06/27 01:18:37;;;;;;;10.73;1.52;;;17.20;95.20;;;;;;5069174;28;20047;-56
2023/06/27 01:21:04;;;;;;;6.85;1.60;;;17.20;95.40;;;;;;5071241;28;20048;-55
2023/06/27 01:23:44;;;;;;;9.27;1.90;;;17.30;95.40;;;;;;5052549;28;20064;-54
2023/06/27 01:26:12;;;;;;;8.25;1.85;;;17.30;95.60;;;;;;5035028;28;20458;-55
2023/06/27 01:28:38;;;;;;;7.00;1.55;;;17.30;95.80;;;;;;5036131;28;20556;-54
2023/06/27 01:31:06;;;;;;;7.82;2.05;;;17.30;96.00;;;;;;5071043;28;20380;-54
2023/06/27 01:33:39;;;;;;;6.03;1.52;;;17.20;96.10;;;;;;5070537;28;20075;-55
2023/06/27 01:36:26;;;;;;;8.43;3.05;;;17.20;96.50;;;;;;5070596;28;20430;-54
2023/06/27 01:39:03;;;;;;;9.32;2.70;;;17.20;97.60;;;;;;5070334;28;20049;-55
2023/06/27 01:41:31;;;;;;;6.43;1.67;;;17.20;97.20;;;;;;5032865;28;20045;-55
2023/06/27 01:43:58;;;;;;;8.48;1.73;;;17.20;96.90;;;;;;5053032;28;20247;-55
2023/06/27 01:46:25;;;;;;;7.97;1.83;;;17.20;97.00;;;;;;5034677;28;20416;-54
2023/06/27 01:48:52;;;;;;;4.82;1.63;;;17.20;97.20;;;;;;5036214;28;20049;-52
2023/06/27 01:51:19;;;;;;;6.20;1.77;;;17.30;97.40;;;;;;5052438;28;20101;-54
2023/06/27 01:53:46;;;;;;;5.38;1.70;;;17.30;97.50;;;;;;5052460;28;20048;-55
2023/06/27 01:56:13;;;;;;;12.27;2.78;;;17.30;97.40;;;;;;5053180;28;20044;-52
2023/06/27 01:58:40;;;;;;;11.30;1.85;;;17.30;97.60;;;;;;5070316;28;20044;-53
2023/06/27 02:01:08;;;;;;;6.32;1.98;;;17.30;97.70;;;;;;5070511;28;20045;-55
2023/06/27 02:03:35;;;;;;;9.63;1.58;;;17.30;98.10;;;;;;5052736;28;20045;-50
2023/06/27 02:06:02;;;;;;;8.07;2.08;;;17.20;98.20;;;;;;5052638;28;20075;-54
2023/06/27 02:08:29;;;;;;;7.85;1.83;;;17.10;98.30;;;;;;5070444;28;20052;-53
2023/06/27 02:10:56;;;;;;;7.95;2.17;;;17.10;98.70;;;;;;5070257;28;20041;-52
2023/06/27 02:13:22;;;;;;;12.35;1.90;;;17.10;99.00;;;;;;5069542;28;20044;-57
2023/06/27 02:15:49;;;;;;;6.57;2.03;;;17.10;99.00;;;;;;5069494;28;20052;-53
2023/06/27 02:18:16;;;;;;;9.15;2.00;;;17.00;99.30;;;;;;5069200;28;20044;-54
2023/06/27 02:20:43;;;;;;;5.95;1.58;;;17.00;99.50;;;;;;5069302;28;20044;-53
2023/06/27 02:23:09;;;;;;;7.57;1.83;;;17.00;99.70;;;;;;5069629;28;20056;-55
2023/06/27 02:25:36;;;;;;;4.72;1.80;;;17.10;99.60;;;;;;5069346;28;20049;-56
2023/06/27 02:28:05;;;;;;;10.02;2.03;;;17.10;99.90;;;;;;5069331;28;20514;-56
2023/06/27 02:30:32;;;;;;;7.70;1.73;;;17.00;99.90;;;;;;5051998;28;20044;-55
2023/06/27 02:32:59;;;;;;;8.68;1.45;;;17.00;99.90;;;;;;5069438;28;20541;-55
2023/06/27 02:35:26;;;;;;;6.85;1.98;;;17.00;99.90;;;;;;5069026;28;20083;-54
2023/06/27 02:37:53;;;;;;;4.18;1.77;;;17.00;99.90;;;;;;5069089;28;20487;-55
2023/06/27 02:40:19;;;;;;;8.15;1.58;;;17.00;99.90;;;;;;5069244;28;20037;-53
2023/06/27 02:42:46;;;;;;;7.68;2.22;;;16.90;99.90;;;;;;5069186;28;20080;-54
2023/06/27 02:45:13;;;;;;;8.98;1.88;;;16.80;99.90;;;;;;5069138;28;20045;-51
2023/06/27 02:47:40;;;;;;;10.30;2.35;;;16.90;99.90;;;;;;5068982;28;20510;-54
2023/06/27 02:50:07;;;;;;;6.63;2.17;;;16.90;99.90;;;;;;5069596;28;20118;-58
2023/06/27 02:52:34;;;;;;;7.80;1.70;;;16.90;99.90;;;;;;5051704;28;20054;-53
2023/06/27 02:55:01;;;;;;;8.13;1.50;;;16.90;99.90;;;;;;5066612;28;20101;-55
2023/06/27 02:57:29;;;;;;;7.82;2.28;;;16.70;99.90;;;;;;5069382;28;20491;-53
2023/06/27 02:59:56;;;;;;;7.60;1.52;;;16.70;99.90;;;;;;5069333;28;20499;-51
2023/06/27 03:02:23;;;;;;;8.85;1.77;;;16.70;99.90;;;;;;5063725;28;20048;-55
2023/06/27 03:04:50;;;;;;;7.70;1.90;;;16.70;99.90;;;;;;5067399;28;20062;-52
2023/06/27 03:07:17;;;;;;;15.35;1.75;;;16.60;99.90;;;;;;5067057;28;20097;-54
2023/06/27 03:09:43;;;;;;;12.15;2.42;;;16.60;99.90;;;;;;5060900;28;20051;-53
2023/06/27 03:12:10;;;;;;;12.88;2.80;;;16.50;99.90;;;;;;5065136;28;20048;-54
2023/06/27 03:14:37;;;;;;;6.18;1.58;;;16.60;99.90;;;;;;5054710;28;20048;-54
2023/06/27 03:17:04;;;;;;;13.57;2.70;;;16.60;99.90;;;;;;5069093;28;20044;-52
2023/06/27 03:19:31;;;;;;;11.05;1.85;;;16.60;99.90;;;;;;5051692;28;20098;-54
2023/06/27 03:22:10;;;;;;;6.45;1.85;;;16.60;99.90;;;;;;5068288;28;20044;-51
2023/06/27 03:24:37;;;;;;;8.15;2.30;;;16.70;99.90;;;;;;5065527;28;20416;-53
2023/06/27 03:27:04;;;;;;;5.85;1.55;;;16.70;99.90;;;;;;5068473;28;20480;-54
2023/06/27 03:29:30;;;;;;;7.22;1.35;;;16.70;99.90;;;;;;5069033;28;20048;-52
2023/06/27 03:31:57;;;;;;;7.82;1.80;;;16.70;99.90;;;;;;5068377;28;20107;-54
2023/06/27 03:34:24;;;;;;;5.70;1.83;;;16.70;99.90;;;;;;5067680;28;20103;-55
2023/06/27 03:36:51;;;;;;;4.43;1.42;;;16.70;99.90;;;;;;5067688;28;20419;-53
2023/06/27 03:39:18;;;;;;;6.30;1.77;;;16.60;99.90;;;;;;5067975;28;20076;-51
2023/06/27 03:41:45;;;;;;;9.80;1.75;;;16.60;99.90;;;;;;5068119;28;20458;-52
2023/06/27 03:44:12;;;;;;;13.63;2.17;;;16.60;99.90;;;;;;5068587;28;20051;-55
2023/06/27 03:46:39;;;;;;;5.10;1.63;;;16.60;99.90;;;;;;5050393;28;20467;-54
2023/06/27 03:49:05;;;;;;;7.30;2.33;;;16.70;99.90;;;;;;5064938;28;20491;-56
2023/06/27 03:51:33;;;;;;;10.02;1.95;;;16.60;99.90;;;;;;5068346;28;20376;-53
2023/06/27 03:54:02;;;;;;;11.82;2.05;;;16.60;99.90;;;;;;5034128;28;20044;-54
2023/06/27 03:56:29;;;;;;;8.90;2.30;;;16.60;99.90;;;;;;5068624;28;20106;-55
2023/06/27 03:58:56;;;;;;;6.00;2.03;;;16.60;99.90;;;;;;5050158;28;20104;-58
2023/06/27 04:01:23;;;;;;;8.02;2.25;;;16.60;99.90;;;;;;5068374;28;20467;-53
2023/06/27 04:03:50;;;;;;;7.05;1.58;;;16.60;99.90;;;;;;5065716;28;20407;-53
2023/06/27 04:06:18;;;;;;;8.90;1.83;;;16.60;99.90;;;;;;5067762;28;20494;-55
2023/06/27 04:08:45;;;;;;;6.43;1.92;;;16.60;99.90;;;;;;5067348;28;20615;-54
2023/06/27 04:11:12;;;;;;;13.27;2.47;;;16.60;99.90;;;;;;5068215;28;20453;-52
2023/06/27 04:13:39;;;;;;;11.13;2.17;;;16.70;99.90;;;;;;5068026;28;20060;-53
2023/06/27 04:16:06;;;;;;;8.13;2.60;;;16.60;99.90;;;;;;5068072;28;20048;-54
2023/06/27 04:18:32;;;;;;;6.25;1.60;;;16.70;99.90;;;;;;5050729;28;20044;-54
2023/06/27 04:20:59;;;;;;;5.50;1.25;;;16.70;99.90;;;;;;5068034;28;20064;-56
2023/06/27 04:23:26;;;;;;;12.35;2.30;;;16.80;99.90;;;;;;5067383;28;20466;-55
2023/06/27 04:26:03;;;;;;;5.93;1.70;;;16.80;99.90;;;;;;5068338;28;20522;-54
2023/06/27 04:28:36;;;;;;;7.30;2.33;;;16.80;99.90;;;;;;5067266;28;20049;-54
2023/06/27 04:31:03;;;;;;;7.83;2.40;;;16.80;99.90;;;;;;5067995;28;20048;-55
2023/06/27 04:33:30;;;;;;;5.55;1.70;;;16.80;99.90;;;;;;5066923;28;20362;-51
2023/06/27 04:36:00;;;;;;;6.82;1.77;;;16.80;99.90;;;;;;5067154;28;20060;-55
2023/06/27 04:38:29;;;;;;;8.02;2.17;;;16.90;99.90;;;;;;5067027;28;20430;-56
2023/06/27 04:40:56;;;;;;;8.75;2.00;;;16.80;99.90;;;;;;5067977;28;20343;-56
2023/06/27 04:43:26;;;;;;;11.35;2.42;;;16.80;99.90;;;;;;5067818;28;20044;-55
2023/06/27 04:45:54;;;;;;;10.07;1.92;;;16.80;99.90;;;;;;5066458;28;20057;-55
2023/06/27 04:48:21;;;;;;;12.75;2.92;;;16.80;99.90;;;;;;5067880;28;20056;-58
2023/06/27 04:50:47;;;;;;;5.78;1.88;;;16.80;99.90;;;;;;5068744;28;20106;-55
2023/06/27 04:53:14;;;;;;;11.38;1.98;;;16.70;99.90;;;;;;5053934;28;20044;-54
2023/06/27 04:55:41;;;;;;;6.93;2.10;;;16.60;99.90;;;;;;5071445;28;20048;-55
2023/06/27 04:58:08;;;;;;;5.70;1.98;;;16.70;99.90;;;;;;5051908;28;20052;-55
2023/06/27 05:00:35;;;;;;;7.05;2.33;;;16.70;99.90;;;;;;5067468;28;20098;-55
2023/06/27 05:03:02;;;;;;;6.70;2.10;;;16.70;99.90;;;;;;5071544;28;20244;-53
2023/06/27 05:05:33;;;;;;;13.13;2.38;;;16.70;99.90;;;;;;5070939;28;20055;-55
2023/06/27 05:08:01;;;;;;;6.03;1.95;;;16.70;99.90;;;;;;5071158;28;20491;-54
2023/06/27 05:10:28;;;;;;;8.50;2.78;;;16.70;99.90;;;;;;5068260;28;20056;-56
2023/06/27 05:12:54;;;;;;;10.48;2.47;;;16.70;99.90;;;;;;5071509;28;20108;-51
2023/06/27 05:15:21;;;;;;;9.90;2.85;;;16.70;99.90;;;;;;5071309;28;20056;-54
2023/06/27 05:17:52;;;;;;;8.55;2.20;;;16.70;99.90;;;;;;5053727;28;20471;-55
2023/06/27 05:20:19;;;;;;;8.93;2.67;;;16.70;99.90;;;;;;5071336;28;20110;-55
2023/06/27 05:22:46;;;;;;;10.07;2.22;;;16.70;99.90;;;;;;5052609;28;20182;-54
2023/06/27 05:25:13;;;;;;;10.75;2.55;;;16.80;99.90;;;;;;5070198;28;20052;-57
2023/06/27 05:27:40;;;;;;;18.00;3.58;;;16.80;99.90;;;;;;5071689;28;20049;-56
2023/06/27 05:30:07;;;;;;;19.98;2.95;;;16.90;99.90;;;;;;5070983;28;20040;-58
2023/06/27 05:32:34;;;;;;;13.68;2.22;;;17.00;99.90;;;;;;5070208;28;20040;-57
2023/06/27 05:35:01;;;;;;;19.48;2.95;;;17.00;99.90;;;;;;5070304;28;20140;-50
2023/06/27 05:37:28;;;;;;;11.63;2.78;;;17.10;99.90;;;;;;5070003;28;20041;-55
2023/06/27 05:39:54;;;;;;;10.38;2.40;;;17.10;99.90;;;;;;4715106;28;9999807;-53
2023/06/27 05:42:21;;;;;;;9.63;2.22;;;17.10;99.90;;;;;;5041319;28;20056;-56
2023/06/27 05:44:48;;;;;;;12.43;2.38;;;17.10;99.90;;;;;;5064436;28;20044;-53
2023/06/27 05:47:16;;;;;;;8.15;2.00;;;17.20;99.90;;;;;;5067409;28;20114;-54
2023/06/27 05:49:42;;;;;;;16.45;3.90;;;17.30;99.90;;;;;;5067426;28;20070;-56
2023/06/27 05:52:09;;;;;;;11.38;2.80;;;17.30;99.90;;;;;;5066335;28;20087;-57
2023/06/27 05:54:36;;;;;;;7.88;2.45;;;17.40;99.90;;;;;;5049509;28;20588;-56
2023/06/27 05:57:03;;;;;;;16.00;2.65;;;17.40;99.90;;;;;;5066817;28;20110;-55
2023/06/27 05:59:30;;;;;;;10.95;2.55;;;17.40;99.90;;;;;;5063744;28;20052;-55
2023/06/27 06:01:57;;;;;;;35.72;4.85;;;17.50;99.90;;;;;;5069072;28;20045;-55
2023/06/27 06:04:24;;;;;;;15.25;2.75;;;17.60;99.90;;;;;;5052712;28;20333;-52
2023/06/27 06:06:51;;;;;;;11.20;2.20;;;17.70;99.90;;;;;;5067264;28;20051;-55
2023/06/27 06:09:18;;;;;;;11.45;2.38;;;17.70;99.90;;;;;;5067113;28;20499;-57
2023/06/27 06:11:44;;;;;;;8.70;2.33;;;17.80;99.90;;;;;;5051309;28;20040;-56
2023/06/27 06:14:11;;;;;;;9.45;2.15;;;17.70;99.90;;;;;;5069598;28;20048;-56
2023/06/27 06:16:38;;;;;;;16.33;2.67;;;17.90;99.90;;;;;;5069825;28;20502;-52
2023/06/27 06:19:06;;;;;;;6.18;2.03;;;17.70;99.90;;;;;;5047997;28;20044;-55
2023/06/27 06:21:33;;;;;;;15.23;3.00;;;17.80;99.90;;;;;;5067542;28;20412;-56
2023/06/27 06:24:02;;;;;;;10.75;3.25;;;17.70;99.90;;;;;;5066303;28;20060;-55
2023/06/27 06:26:28;;;;;;;12.25;3.30;;;17.80;99.90;;;;;;5067261;28;20052;-53
2023/06/27 06:28:55;;;;;;;22.73;2.67;;;17.90;99.90;;;;;;5051344;28;20047;-54
2023/06/27 06:31:24;;;;;;;10.00;2.78;;;17.90;99.90;;;;;;5069643;28;20109;-52
2023/06/27 06:33:51;;;;;;;10.00;3.20;;;18.00;99.90;;;;;;5067564;28;20175;-54
2023/06/27 06:36:18;;;;;;;10.20;2.40;;;18.10;99.90;;;;;;5067878;28;20048;-55
2023/06/27 06:38:45;;;;;;;15.63;2.70;;;18.20;99.90;;;;;;5068734;28;20054;-52
2023/06/27 06:41:13;;;;;;;9.68;2.53;;;18.20;99.90;;;;;;5069105;28;20056;-55
2023/06/27 06:43:40;;;;;;;11.40;2.30;;;18.20;99.90;;;;;;5068772;28;20052;-56
2023/06/27 06:46:07;;;;;;;9.23;3.33;;;18.10;99.90;;;;;;5068688;28;20049;-55
2023/06/27 06:48:34;;;;;;;8.02;2.17;;;18.10;99.90;;;;;;5050267;28;20556;-56
2023/06/27 06:51:00;;;;;;;7.03;2.92;;;18.10;99.90;;;;;;5068307;28;20059;-56
2023/06/27 06:53:27;;;;;;;10.68;3.25;;;18.20;99.90;;;;;;5068342;28;20511;-56
2023/06/27 06:55:54;;;;;;;12.05;3.15;;;18.20;99.90;;;;;;5051280;28;20495;-55
2023/06/27 06:58:21;;;;;;;14.10;2.58;;;18.30;99.90;;;;;;5068009;28;20109;-55
2023/06/27 07:00:48;;;;;;;18.48;2.42;;;18.30;99.90;;;;;;5068411;28;20166;-57
2023/06/27 07:03:15;;;;;;;9.43;2.33;;;18.40;99.90;;;;;;5067353;28;20055;-57
2023/06/27 07:05:42;;;;;;;10.65;2.38;;;18.40;99.90;;;;;;5067894;28;20048;-57
2023/06/27 07:08:09;;;;;;;8.55;2.90;;;18.40;99.90;;;;;;5067925;28;20054;-57
2023/06/27 07:10:36;;;;;;;13.20;2.22;;;18.50;99.90;;;;;;5066992;28;20056;-57
2023/06/27 07:13:04;;;;;;;12.55;2.35;;;18.50;99.90;;;;;;5067418;28;20071;-56
2023/06/27 07:15:32;;;;;;;10.75;1.92;;;18.40;99.90;;;;;;5064770;28;20055;-56
2023/06/27 07:17:59;;;;;;;9.15;2.22;;;18.30;99.90;;;;;;5067956;28;20685;-55
2023/06/27 07:20:26;;;;;;;12.93;2.78;;;18.30;99.90;;;;;;5067700;28;20048;-56
2023/06/27 07:22:53;;;;;;;18.90;3.20;;;18.30;99.90;;;;;;5068063;28;20450;-56
2023/06/27 07:25:20;;;;;;;10.02;2.58;;;18.20;99.90;;;;;;5067516;28;20053;-57
2023/06/27 07:27:47;;;;;;;13.80;2.60;;;18.30;99.90;;;;;;5068348;28;20049;-57
2023/06/27 07:30:15;;;;;;;12.50;3.00;;;18.30;99.90;;;;;;5067064;28;20071;-57
2023/06/27 07:32:41;;;;;;;7.72;2.60;;;18.40;99.90;;;;;;5067649;28;20041;-54
2023/06/27 07:35:08;;;;;;;14.20;3.78;;;18.60;99.90;;;;;;5066816;28;20044;-57
2023/06/27 07:37:37;;;;;;;7.00;3.20;;;18.60;99.90;;;;;;5067219;28;20134;-59
2023/06/27 07:40:07;;;;;;;11.05;2.70;;;18.60;99.90;;;;;;5066953;28;20128;-54
2023/06/27 07:42:34;;;;;;;15.95;3.00;;;18.70;99.90;;;;;;5067175;28;20052;-55
2023/06/27 07:45:01;;;;;;;13.45;2.78;;;18.80;99.90;;;;;;5047654;28;20102;-59
2023/06/27 07:47:28;;;;;;;11.63;2.50;;;18.80;99.90;;;;;;5059480;28;20041;-56
2023/06/27 07:49:55;;;;;;;10.75;2.55;;;18.90;99.90;;;;;;5066005;28;20537;-57
2023/06/27 07:52:22;;;;;;;8.30;2.47;;;19.00;99.90;;;;;;5066896;28;20047;-58
2023/06/27 07:54:49;;;;;;;11.35;2.72;;;19.10;99.90;;;;;;5065337;28;20059;-57
2023/06/27 07:57:15;;;;;;;12.55;2.47;;;19.30;99.90;;;;;;5056357;28;20044;-58
2023/06/27 07:59:42;;;;;;;8.43;2.38;;;19.30;99.90;;;;;;4696883;28;9999851;-56
2023/06/27 08:02:09;;;;;;;16.52;3.28;;;19.30;99.90;;;;;;5064840;28;20122;-53
2023/06/27 08:04:36;;;;;;;9.00;2.17;;;19.30;99.90;;;;;;5067023;28;20403;-58
2023/06/27 08:07:03;;;;;;;11.40;2.58;;;19.30;99.90;;;;;;5065979;28;20048;-56
2023/06/27 08:09:30;;;;;;;10.93;2.30;;;19.30;99.90;;;;;;5048375;28;20096;-56
2023/06/27 08:11:56;;;;;;;11.15;2.15;;;19.30;99.90;;;;;;5066713;28;20051;-54
2023/06/27 08:14:26;;;;;;;10.52;2.40;;;19.40;99.90;;;;;;5066876;28;20054;-54
2023/06/27 08:16:53;;;;;;;12.00;2.10;;;19.40;99.90;;;;;;5063793;28;20063;-54
2023/06/27 08:19:20;;;;;;;9.38;2.45;;;19.40;99.90;;;;;;5062813;28;20143;-55
2023/06/27 08:21:46;;;;;;;11.30;3.30;;;19.50;99.90;;;;;;5067183;28;20048;-55
2023/06/27 08:24:13;;;;;;;16.02;2.05;;;19.50;99.90;;;;;;5046362;28;20053;-55
2023/06/27 08:26:41;;;;;;;6.88;2.10;;;19.50;99.90;;;;;;5045124;28;20076;-57
2023/06/27 08:29:07;;;;;;;13.80;2.42;;;19.50;99.90;;;;;;5047342;28;20052;-57
2023/06/27 08:31:34;;;;;;;16.08;3.05;;;19.40;99.90;;;;;;5047268;28;20095;-57
2023/06/27 08:34:02;;;;;;;11.43;2.53;;;19.30;99.90;;;;;;5036641;28;20047;-57
2023/06/27 08:36:28;;;;;;;7.53;2.45;;;19.30;99.90;;;;;;5044331;28;20049;-57
2023/06/27 08:38:56;;;;;;;10.55;2.20;;;19.40;99.90;;;;;;5046461;28;20041;-57
2023/06/27 08:41:23;;;;;;;9.90;2.22;;;19.50;99.90;;;;;;5045225;28;20045;-56
2023/06/27 08:43:50;;;;;;;13.73;2.25;;;19.50;99.90;;;;;;5047409;28;20404;-55
2023/06/27 08:46:17;;;;;;;6.45;3.10;;;19.70;99.90;;;;;;5045875;28;20053;-57
2023/06/27 08:48:44;;;;;;;13.55;2.97;;;19.80;99.90;;;;;;5029213;28;20499;-57
2023/06/27 08:51:12;;;;;;;13.95;2.08;;;19.90;99.90;;;;;;5043367;28;20488;-55
2023/06/27 08:53:39;;;;;;;14.43;3.83;;;20.00;99.90;;;;;;5045746;28;20049;-57
2023/06/27 08:56:10;;;;;;;13.57;2.72;;;19.90;99.90;;;;;;5046049;28;20345;-58
2023/06/27 08:58:44;;;;;;;8.40;2.15;;;20.00;99.90;;;;;;5042373;28;20052;-57
2023/06/27 09:01:11;;;;;;;8.40;2.03;;;20.10;99.90;;;;;;5045895;28;20557;-58
2023/06/27 09:03:38;;;;;;;13.48;2.55;;;20.00;99.90;;;;;;5045916;28;20103;-57
2023/06/27 09:06:06;;;;;;;12.20;3.55;;;20.00;99.90;;;;;;5047037;28;20049;-60
2023/06/27 09:08:33;;;;;;;11.10;2.58;;;20.10;99.90;;;;;;5045606;28;20080;-61
2023/06/27 09:11:00;;;;;;;13.63;3.22;;;20.10;99.90;;;;;;5047066;28;20091;-59
2023/06/27 09:13:27;;;;;;;12.90;2.38;;;20.30;99.90;;;;;;5045572;28;20048;-55
2023/06/27 09:15:54;;;;;;;9.00;2.25;;;20.40;98.70;;;;;;5044955;28;20044;-58
2023/06/27 09:18:21;;;;;;;10.93;2.40;;;20.30;98.60;;;;;;5045912;28;20474;-58
2023/06/27 09:20:48;;;;;;;13.43;2.33;;;20.30;98.80;;;;;;5047030;28;20061;-57
2023/06/27 09:23:15;;;;;;;12.35;3.17;;;20.60;99.00;;;;;;5047538;28;20084;-55
2023/06/27 09:25:42;;;;;;;7.43;1.88;;;20.60;98.80;;;;;;5049343;28;20052;-59
2023/06/27 09:28:16;;;;;;;9.60;2.92;;;20.70;98.40;;;;;;5066382;28;20059;-57
2023/06/27 09:30:55;;;;;;;13.88;3.33;;;20.90;97.40;;;;;;5066628;28;20056;-58
2023/06/27 09:33:23;;;;;;;11.38;2.53;;;21.10;97.00;;;;;;5048785;28;20507;-56
2023/06/27 09:35:53;;;;;;;11.15;2.65;;;21.00;97.40;;;;;;5064521;28;20037;-59
2023/06/27 09:38:31;;;;;;;7.32;1.90;;;21.20;96.80;;;;;;5066022;28;20056;-58
2023/06/27 09:41:05;;;;;;;9.82;2.88;;;21.20;96.90;;;;;;5067821;28;20060;-56
2023/06/27 09:43:35;;;;;;;10.95;2.33;;;21.10;96.40;;;;;;5062940;28;20082;-58
2023/06/27 09:46:05;;;;;;;10.27;3.25;;;21.20;96.80;;;;;;5067473;28;20041;-57
2023/06/27 09:48:32;;;;;;;21.08;3.03;;;21.20;96.80;;;;;;5051440;28;20053;-57
2023/06/27 09:51:00;;;;;;;14.32;3.63;;;21.00;96.80;;;;;;5050929;28;20044;-59
2023/06/27 09:53:30;;;;;;;8.05;2.28;;;21.20;97.20;;;;;;5070172;28;20082;-58
2023/06/27 09:56:00;;;;;;;9.13;2.77;;;21.10;96.00;;;;;;5070264;28;20057;-58
2023/06/27 09:58:31;;;;;;;9.43;2.25;;;20.70;97.40;;;;;;5069827;28;20083;-60
2023/06/27 10:01:07;;;;;;;14.18;2.90;;;20.70;97.70;;;;;;5069485;28;20052;-58
2023/06/27 10:03:34;;;;;;;9.57;2.03;;;20.70;97.50;;;;;;5052346;28;20503;-58
2023/06/27 10:06:02;;;;;;;9.05;2.10;;;20.80;97.40;;;;;;5069695;28;20049;-56
2023/06/27 10:08:37;;;;;;;11.85;2.10;;;20.90;96.80;;;;;;5055775;28;20403;-58
2023/06/27 10:11:04;;;;;;;11.25;2.55;;;21.20;96.40;;;;;;5051635;28;20057;-58
2023/06/27 10:13:30;;;;;;;11.02;2.15;;;21.40;96.50;;;;;;5070031;28;20477;-55
2023/06/27 10:15:57;;;;;;;8.45;2.35;;;21.60;96.50;;;;;;5051716;28;20342;-58
2023/06/27 10:18:25;;;;;;;8.85;2.17;;;21.70;96.40;;;;;;5051633;28;20071;-56
2023/06/27 10:20:54;;;;;;;9.68;2.65;;;21.70;96.30;;;;;;5051632;28;20445;-56
2023/06/27 10:23:21;;;;;;;6.90;2.22;;;22.00;95.30;;;;;;5031857;28;20053;-58
2023/06/27 10:25:48;;;;;;;11.05;2.42;;;22.10;95.90;;;;;;5051516;28;20290;-57
2023/06/27 10:28:15;;;;;;;11.30;2.72;;;22.20;95.50;;;;;;5051787;28;20058;-60
2023/06/27 10:30:46;;;;;;;12.43;2.90;;;22.20;95.20;;;;;;5069519;28;20048;-60
2023/06/27 10:33:27;;;;;;;9.70;3.70;;;22.30;95.60;;;;;;5069806;28;20044;-59
2023/06/27 10:36:05;;;;;;;20.65;3.15;;;22.40;94.50;;;;;;5069120;28;20052;-58
2023/06/27 10:38:35;;;;;;;8.27;2.28;;;22.50;94.40;;;;;;5069273;28;20052;-57
2023/06/27 10:41:06;;;;;;;12.88;2.92;;;22.30;93.70;;;;;;5069204;28;20569;-56
2023/06/27 10:43:37;;;;;;;8.48;2.30;;;22.20;94.10;;;;;;5069837;28;20392;-57
2023/06/27 10:46:11;;;;;;;10.15;1.88;;;22.30;93.60;;;;;;5068932;28;20494;-56
2023/06/27 10:48:53;;;;;;;9.05;2.17;;;22.20;93.50;;;;;;5068481;28;20284;-57
2023/06/27 10:51:21;;;;;;;6.78;2.03;;;22.40;93.50;;;;;;5069167;28;20044;-56
2023/06/27 10:54:07;;;;;;;11.73;2.38;;;22.50;93.60;;;;;;5051320;28;20057;-59
2023/06/27 10:56:38;;;;;;;8.60;1.88;;;22.70;92.70;;;;;;5065492;28;20041;-57
2023/06/27 10:59:08;;;;;;;9.07;1.90;;;22.70;93.10;;;;;;5068765;28;20053;-57
2023/06/27 11:01:40;;;;;;;7.90;1.48;;;22.70;93.20;;;;;;5050610;28;20075;-55
2023/06/27 11:04:26;;;;;;;6.50;1.90;;;22.60;92.60;;;;;;5069196;28;20114;-57
2023/06/27 11:07:00;;;;;;;13.95;2.88;;;22.70;92.60;;;;;;5048957;28;20056;-52
2023/06/27 11:09:29;;;;;;;4.97;1.52;;;22.90;92.90;;;;;;5066813;28;20044;-57
2023/06/27 11:12:08;;;;;;;6.13;1.75;;;23.00;93.00;;;;;;5068065;28;20121;-56
2023/06/27 11:14:40;;;;;;;6.63;1.48;;;22.90;92.40;;;;;;5069115;28;20048;-56
2023/06/27 11:17:07;;;;;;;14.55;1.80;;;23.00;92.60;;;;;;5051016;28;20357;-58
2023/06/27 11:19:34;;;;;;;7.15;1.73;;;23.00;91.30;;;;;;5051156;28;20113;-58
2023/06/27 11:22:01;;;;;;;5.22;1.85;;;22.90;92.20;;;;;;5067690;28;20040;-56
2023/06/27 11:24:31;;;;;;;7.72;2.13;;;22.90;92.40;;;;;;5068368;28;20056;-57
2023/06/27 11:27:00;;;;;;;8.75;2.22;;;23.00;92.00;;;;;;5068039;28;20131;-59
2023/06/27 11:29:27;;;;;;;8.65;1.92;;;23.10;91.90;;;;;;5050584;28;20052;-57
2023/06/27 11:31:54;;;;;;;7.15;1.95;;;23.00;91.50;;;;;;5068239;28;20529;-57
2023/06/27 11:34:22;;;;;;;8.02;2.08;;;23.20;91.30;;;;;;5067843;28;20102;-58
2023/06/27 11:36:48;;;;;;;8.20;1.83;;;23.30;91.50;;;;;;5050095;28;20137;-56
2023/06/27 11:39:16;;;;;;;7.53;1.98;;;23.30;91.30;;;;;;5067348;28;20049;-58
2023/06/27 11:41:43;;;;;;;4.90;2.05;;;23.30;91.30;;;;;;5066305;28;20094;-58
2023/06/27 11:44:11;;;;;;;6.05;1.85;;;23.10;90.50;;;;;;5050239;28;20049;-52
2023/06/27 11:46:47;;;;;;;8.88;1.77;;;23.00;90.60;;;;;;5067329;28;20040;-57
2023/06/27 11:49:14;;;;;;;9.30;1.80;;;23.20;90.60;;;;;;5062311;28;20045;-56
2023/06/27 11:51:41;;;;;;;3.35;1.30;;;23.30;90.90;;;;;;5067891;28;20505;-58
2023/06/27 11:54:08;;;;;;;4.00;1.52;;;23.40;90.30;;;;;;5067951;28;20136;-56
2023/06/27 11:56:38;;;;;;;4.80;1.50;;;23.40;89.90;;;;;;5065923;28;20052;-56
2023/06/27 11:59:06;;;;;;;7.85;2.15;;;23.50;89.70;;;;;;5067496;28;20076;-58
2023/06/27 12:01:39;;;;;;;11.20;2.00;;;23.50;90.00;;;;;;5067474;28;20109;-58
2023/06/27 12:04:14;;;;;;;4.50;1.88;;;23.50;88.90;;;;;;5044348;28;20044;-56
2023/06/27 12:06:48;;;;;;;5.85;2.15;;;23.50;88.60;;;;;;5067487;28;20079;-58
2023/06/27 12:09:25;;;;;;;6.20;1.80;;;23.50;88.90;;;;;;5067348;28;20072;-57
2023/06/27 12:11:53;;;;;;;6.63;1.48;;;23.60;88.00;;;;;;5068023;28;20541;-58
2023/06/27 12:14:21;;;;;;;10.88;2.05;;;23.50;88.00;;;;;;5067328;28;20116;-57
2023/06/27 12:16:48;;;;;;;6.00;1.95;;;23.40;89.00;;;;;;5067376;28;20055;-57
2023/06/27 12:19:17;;;;;;;5.88;1.45;;;23.60;88.50;;;;;;5067130;28;20041;-56
2023/06/27 12:21:44;;;;;;;8.25;1.98;;;23.50;87.80;;;;;;5065803;28;20044;-56
2023/06/27 12:24:11;;;;;;;6.82;2.05;;;23.60;89.40;;;;;;5066898;28;20048;-54
2023/06/27 12:26:39;;;;;;;14.18;2.40;;;23.80;89.20;;;;;;5065654;28;20068;-58
2023/06/27 12:29:07;;;;;;;11.50;2.22;;;24.10;88.70;;;;;;5065716;28;20110;-53
2023/06/27 12:31:37;;;;;;;7.30;2.13;;;24.10;89.00;;;;;;5068035;28;20052;-57
2023/06/27 12:34:04;;;;;;;10.35;2.35;;;24.20;87.70;;;;;;5049405;28;20036;-57
2023/06/27 12:36:32;;;;;;;5.90;1.58;;;24.20;87.50;;;;;;5048323;28;20049;-58
2023/06/27 12:39:00;;;;;;;12.07;2.17;;;24.00;87.10;;;;;;5067331;28;20568;-57
2023/06/27 12:41:27;;;;;;;4.20;1.70;;;24.20;86.90;;;;;;5067110;28;20055;-57
2023/06/27 12:43:54;;;;;;;6.95;2.10;;;24.20;86.50;;;;;;5067277;28;20049;-57
2023/06/27 12:46:20;;;;;;;11.60;1.88;;;24.20;85.60;;;;;;5066626;28;20118;-57
2023/06/27 12:48:47;;;;;;;10.85;2.17;;;24.20;87.00;;;;;;5052113;28;20136;-58